Terminal Aerodrome Forecast
Issued by NWS Mt. Holly, NJ

Home | Current Version | Previous Version | Text Only | Print | Product List | Glossary On
Versions: 1 2 3 4 5 6 7 8 9 10 11 12 13 14 15 16 17 18 19 20 21 22 23 24 25
000
FTUS41 KPHI 132300
TAFACY
TAF
KACY 132334Z 1400/1424 18012G20KT P6SM SCT040 BKN120
     FM140200 19012KT 5SM -SHRA BKN035
     FM140400 18009KT 6SM BR SCT035 BKN100
     FM141300 22010KT P6SM BKN040
     FM141800 19011KT P6SM BKN040
      TEMPO 1420/1424 3SM SHRA BKN025=

USA.gov is the U.S. government's official web portal to all federal, state and local government web resources and services.